createdAt,value
2022-10-31T00:00:46.925Z,6.97
2022-10-31T00:03:16.707Z,7.97
2022-10-31T00:05:46.062Z,9.45
2022-10-31T00:08:13.952Z,6.93
2022-10-31T00:10:42.071Z,7.07
2022-10-31T00:13:11.194Z,7.80
2022-10-31T00:15:40.621Z,7.10
2022-10-31T00:18:09.780Z,7.32
2022-10-31T00:20:39.208Z,7.53
2022-10-31T00:23:07.974Z,10.77
2022-10-31T00:25:37.654Z,7.93
2022-10-31T00:28:06.983Z,7.65
2022-10-31T00:30:35.218Z,8.52
2022-10-31T00:33:05.364Z,8.45
2022-10-31T00:35:33.278Z,8.40
2022-10-31T00:38:02.705Z,8.25
2022-10-31T00:40:30.472Z,7.25
2022-10-31T00:42:58.490Z,7.28
2022-10-31T00:45:26.530Z,8.07
2022-10-31T00:47:54.660Z,9.02
2022-10-31T00:50:22.560Z,9.15
2022-10-31T00:52:50.299Z,7.32
2022-10-31T00:55:19.781Z,6.97
2022-10-31T00:57:48.924Z,7.50
2022-10-31T01:00:18.215Z,7.25
2022-10-31T01:02:46.990Z,6.70
2022-10-31T01:05:15.007Z,8.95
2022-10-31T01:07:44.020Z,7.10
2022-10-31T01:10:12.633Z,7.43
2022-10-31T01:12:42.817Z,7.90
2022-10-31T01:15:12.267Z,7.25
2022-10-31T01:17:40.153Z,7.93
2022-10-31T01:20:09.800Z,6.20
2022-10-31T01:22:37.834Z,8.40
2022-10-31T01:25:07.050Z,7.88
2022-10-31T01:27:34.930Z,9.45
2022-10-31T01:30:04.599Z,8.50
2022-10-31T01:32:32.427Z,6.70
2022-10-31T01:35:00.418Z,8.27
2022-10-31T01:37:28.249Z,7.30
2022-10-31T01:39:56.329Z,6.63
2022-10-31T01:42:24.898Z,8.48
2022-10-31T01:44:59.840Z,6.97
2022-10-31T01:47:35.944Z,8.00
2022-10-31T01:50:08.308Z,7.32
2022-10-31T01:52:40.756Z,7.40
2022-10-31T01:55:11.950Z,7.35
2022-10-31T01:57:44.325Z,7.88
2022-10-31T02:00:14.316Z,7.30
2022-10-31T02:02:44.342Z,8.38
2022-10-31T02:05:16.704Z,7.22
2022-10-31T02:07:51.065Z,7.65
2022-10-31T02:10:19.138Z,8.82
2022-10-31T02:12:47.991Z,6.80
2022-10-31T02:15:16.592Z,8.00
2022-10-31T02:17:46.607Z,7.38
2022-10-31T02:20:18.717Z,7.82
2022-10-31T02:23:20.283Z,8.43
2022-10-31T02:26:15.022Z,8.10
2022-10-31T02:29:07.796Z,6.68
2022-10-31T02:31:44.799Z,9.18
2022-10-31T02:34:19.807Z,6.85
2022-10-31T02:36:59.090Z,6.95
2022-10-31T02:39:31.297Z,7.20
2022-10-31T02:42:09.791Z,7.43
2022-10-31T02:44:46.744Z,6.60
2022-10-31T02:47:19.738Z,8.32
2022-10-31T02:52:23.120Z,7.70
2022-10-31T02:54:51.318Z,7.35
2022-10-31T02:57:25.959Z,8.60
2022-10-31T03:00:02.791Z,6.78
2022-10-31T03:03:33.807Z,7.22
2022-10-31T03:06:45.169Z,6.70
2022-10-31T03:09:41.726Z,6.03
2022-10-31T03:12:48.650Z,6.90
2022-10-31T03:15:42.495Z,8.32
2022-10-31T03:18:34.614Z,7.07
2022-10-31T03:21:15.416Z,8.52
2022-10-31T03:23:59.373Z,6.97
2022-10-31T03:26:31.960Z,9.15
2022-10-31T03:29:38.532Z,7.90
2022-10-31T03:32:28.441Z,7.35
2022-10-31T03:35:56.200Z,9.00
2022-10-31T03:38:54.867Z,7.63
2022-10-31T03:42:00.790Z,6.30
2022-10-31T03:44:55.058Z,7.80
2022-10-31T03:47:23.682Z,8.18
2022-10-31T03:49:52.053Z,8.55
2022-10-31T03:52:29.469Z,7.03
2022-10-31T03:55:01.126Z,8.45
2022-10-31T03:57:39.113Z,8.85
2022-10-31T04:17:53.833Z,8.07
2022-10-31T04:20:32.274Z,7.38
2022-10-31T04:23:00.252Z,7.68
2022-10-31T04:25:28.308Z,8.73
2022-10-31T04:27:56.786Z,7.18
2022-10-31T04:30:25.396Z,7.38
2022-10-31T04:32:53.620Z,9.27
2022-10-31T04:35:22.985Z,7.72
2022-10-31T04:37:50.970Z,8.25
2022-10-31T04:40:20.331Z,7.55
2022-10-31T04:43:06.827Z,7.80
2022-10-31T04:45:37.627Z,8.32
2022-10-31T04:48:10.082Z,8.73
2022-10-31T04:50:50.370Z,7.75
2022-10-31T04:53:23.187Z,7.97
2022-10-31T04:56:10.275Z,10.10
2022-10-31T05:01:41.346Z,9.00
2022-10-31T05:04:20.804Z,8.80
2022-10-31T05:10:04.372Z,10.75
2022-10-31T05:13:14.076Z,7.18
2022-10-31T05:16:40.911Z,7.32
2022-10-31T05:19:31.552Z,8.05
2022-10-31T05:22:23.687Z,8.98
2022-10-31T05:24:51.855Z,8.77
2022-10-31T05:27:20.014Z,9.63
2022-10-31T05:29:48.228Z,6.18
2022-10-31T05:32:17.000Z,12.02
2022-10-31T05:35:16.584Z,9.38
2022-10-31T05:38:08.536Z,7.30
2022-10-31T05:40:36.766Z,7.20
2022-10-31T05:43:04.713Z,8.82
2022-10-31T05:45:32.683Z,9.20
2022-10-31T05:48:05.239Z,8.93
2022-10-31T05:51:02.454Z,9.27
2022-10-31T05:53:31.810Z,8.25
2022-10-31T05:56:02.958Z,9.20
2022-10-31T05:58:31.249Z,7.93
2022-10-31T06:01:06.460Z,8.90
2022-10-31T06:03:35.088Z,8.93
2022-10-31T06:06:05.475Z,8.52
2022-10-31T06:08:44.406Z,7.53
2022-10-31T07:19:27.761Z,7.72
2022-10-31T07:21:56.234Z,9.20
2022-10-31T07:24:28.180Z,7.82
2022-10-31T07:29:28.286Z,8.32
2022-10-31T07:31:56.342Z,7.90
2022-10-31T07:34:30.623Z,11.48
2022-10-31T07:37:20.839Z,8.93
2022-10-31T07:39:50.073Z,10.00
2022-10-31T07:42:18.160Z,8.23
2022-10-31T07:44:47.690Z,8.35
2022-10-31T07:47:41.398Z,8.80
2022-10-31T07:50:13.709Z,8.88
2022-10-31T07:53:04.287Z,7.82
2022-10-31T07:55:48.327Z,8.32
2022-10-31T07:58:18.046Z,9.80
2022-10-31T08:01:06.271Z,8.43
2022-10-31T08:03:44.223Z,9.18
2022-10-31T08:06:32.251Z,8.65
2022-10-31T08:09:23.010Z,11.50
2022-10-31T08:11:53.948Z,8.77
2022-10-31T08:14:22.106Z,10.05
2022-10-31T08:16:52.541Z,11.40
2022-10-31T08:19:20.486Z,11.05
2022-10-31T08:21:52.724Z,8.65
2022-10-31T08:24:20.668Z,10.77
2022-10-31T08:26:49.250Z,10.27
2022-10-31T08:29:18.123Z,10.00
2022-10-31T08:31:47.973Z,10.07
2022-10-31T08:34:54.151Z,10.20
2022-10-31T08:37:49.361Z,11.85
2022-10-31T08:40:18.273Z,10.25
2022-10-31T08:42:46.059Z,9.73
2022-10-31T08:45:14.056Z,9.30
2022-10-31T08:47:42.210Z,11.27
2022-10-31T08:50:10.726Z,8.88
2022-10-31T08:53:03.628Z,8.13
2022-10-31T08:55:29.615Z,9.55
2022-10-31T08:58:06.464Z,12.27
2022-10-31T09:00:44.090Z,9.43
2022-10-31T09:03:17.687Z,8.23
2022-10-31T09:05:46.835Z,10.00
2022-10-31T09:08:16.875Z,10.75
2022-10-31T09:10:48.908Z,9.65
2022-10-31T09:13:27.346Z,9.73
2022-10-31T09:16:18.538Z,9.23
2022-10-31T09:18:46.547Z,10.65
2022-10-31T09:21:18.026Z,9.18
2022-10-31T09:23:47.701Z,10.13
2022-10-31T09:26:17.907Z,11.45
2022-10-31T09:28:58.699Z,11.95
2022-10-31T09:31:27.033Z,10.68
2022-10-31T09:34:02.734Z,8.85
2022-10-31T09:36:50.858Z,10.13
2022-10-31T09:39:21.110Z,11.05
2022-10-31T09:42:25.158Z,10.32
2022-10-31T09:45:06.357Z,8.68
2022-10-31T09:47:54.817Z,8.82
2022-10-31T09:50:35.081Z,10.25
2022-10-31T09:53:27.009Z,10.55
2022-10-31T09:55:56.850Z,12.52
2022-10-31T09:58:29.156Z,10.13
2022-10-31T10:01:02.199Z,9.43
2022-10-31T10:04:00.678Z,8.57
2022-10-31T10:11:32.579Z,10.20
2022-10-31T10:22:23.180Z,10.35
2022-10-31T10:25:04.314Z,9.38
2022-10-31T10:27:44.064Z,8.98
2022-10-31T10:30:17.598Z,11.45
2022-10-31T10:32:51.936Z,8.02
2022-10-31T10:35:25.424Z,9.35
2022-10-31T10:37:58.559Z,10.32
2022-10-31T10:40:29.151Z,9.43
2022-10-31T10:43:22.048Z,10.30
2022-10-31T10:46:16.903Z,8.60
2022-10-31T10:48:46.944Z,9.20
2022-10-31T10:51:39.053Z,10.18
2022-10-31T10:54:34.919Z,10.43
2022-10-31T10:57:12.761Z,10.32
2022-10-31T10:59:41.489Z,9.32
2022-10-31T11:02:21.859Z,8.80
2022-10-31T11:04:55.528Z,10.35
2022-10-31T11:07:33.742Z,8.75
2022-10-31T11:10:14.078Z,10.50
2022-10-31T11:17:42.501Z,8.38
2022-10-31T11:20:32.151Z,6.88
2022-10-31T11:23:06.860Z,7.82
2022-10-31T11:25:35.455Z,9.82
2022-10-31T11:28:05.474Z,9.50
2022-10-31T11:30:44.498Z,8.30
2022-10-31T11:33:22.916Z,9.30
2022-10-31T11:35:57.096Z,8.27
2022-10-31T11:39:19.387Z,8.73
2022-10-31T11:42:08.589Z,7.50
2022-10-31T11:45:00.082Z,7.95
2022-10-31T11:48:03.487Z,8.02
2022-10-31T11:51:05.976Z,8.48
2022-10-31T11:53:36.814Z,8.55
2022-10-31T11:56:12.470Z,7.03
2022-10-31T11:58:41.404Z,7.10
2022-10-31T12:01:26.900Z,8.27
2022-10-31T12:04:07.662Z,7.75
2022-10-31T12:06:38.623Z,7.03
2022-10-31T12:09:22.153Z,6.72
2022-10-31T12:12:04.979Z,5.72
2022-10-31T12:17:16.898Z,5.25
2022-10-31T12:19:56.151Z,6.32
2022-10-31T12:22:32.392Z,6.63
2022-10-31T12:25:14.491Z,7.38
2022-10-31T12:28:00.330Z,9.23
2022-10-31T12:30:44.664Z,7.13
2022-10-31T12:33:28.357Z,7.28
2022-10-31T12:36:12.670Z,6.55
2022-10-31T12:38:57.169Z,5.13
2022-10-31T12:41:38.651Z,6.28
2022-10-31T12:44:13.931Z,6.22
2022-10-31T12:47:01.774Z,7.18
2022-10-31T12:49:44.693Z,6.28
2022-10-31T12:52:32.267Z,4.57
2022-10-31T12:55:12.714Z,5.53
2022-10-31T12:57:47.023Z,7.18
2022-10-31T13:00:17.899Z,5.80
2022-10-31T13:02:51.163Z,5.70
2022-10-31T13:05:24.625Z,7.07
2022-10-31T13:07:59.841Z,7.65
2022-10-31T13:10:32.421Z,6.20
2022-10-31T13:13:07.834Z,6.30
2022-10-31T13:15:52.093Z,9.13
2022-10-31T13:18:28.158Z,7.75
2022-10-31T13:20:59.580Z,7.10
2022-10-31T13:26:26.185Z,7.13
2022-10-31T13:29:02.252Z,5.47
2022-10-31T13:31:30.171Z,5.68
2022-10-31T13:34:02.374Z,7.78
2022-10-31T13:36:37.020Z,6.38
2022-10-31T13:39:15.165Z,6.18
2022-10-31T13:41:49.041Z,5.85
2022-10-31T13:44:22.885Z,7.15
2022-10-31T13:46:51.196Z,6.68
2022-10-31T13:49:41.396Z,5.75
2022-10-31T13:52:17.713Z,5.45
2022-10-31T13:54:47.344Z,5.53
2022-10-31T13:57:20.563Z,6.45
2022-10-31T13:59:56.384Z,7.05
2022-10-31T14:02:29.006Z,6.85
2022-10-31T14:07:28.742Z,6.03
2022-10-31T14:10:01.379Z,5.63
2022-10-31T14:15:05.112Z,6.72
2022-10-31T14:17:40.668Z,6.35
2022-10-31T14:20:42.432Z,6.45
2022-10-31T14:23:37.374Z,6.80
2022-10-31T14:26:18.467Z,5.30
2022-10-31T14:28:47.028Z,5.82
2022-10-31T14:31:34.410Z,4.55
2022-10-31T14:34:03.833Z,5.20
2022-10-31T14:36:43.573Z,4.95
2022-10-31T14:39:19.985Z,6.82
2022-10-31T14:42:01.313Z,6.25
2022-10-31T14:44:47.500Z,5.35
2022-10-31T14:47:27.625Z,6.55
2022-10-31T14:50:16.327Z,5.38
2022-10-31T14:52:49.042Z,6.45
2022-10-31T14:55:18.674Z,6.28
2022-10-31T14:57:52.089Z,6.53
2022-10-31T15:00:22.942Z,6.15
2022-10-31T15:03:05.528Z,6.00
2022-10-31T15:05:35.050Z,5.07
2022-10-31T15:08:03.030Z,5.93
2022-10-31T15:10:35.867Z,4.72
2022-10-31T15:13:19.273Z,5.75
2022-10-31T15:15:51.992Z,6.20
2022-10-31T15:18:25.318Z,7.40
2022-10-31T15:20:54.679Z,5.82
2022-10-31T15:23:25.622Z,5.47
2022-10-31T15:26:01.089Z,5.55
2022-10-31T15:28:29.717Z,5.72
2022-10-31T15:31:01.066Z,7.25
2022-10-31T15:33:37.882Z,5.40
2022-10-31T15:36:07.664Z,6.15
2022-10-31T15:38:35.789Z,7.18
2022-10-31T15:41:06.676Z,5.38
2022-10-31T15:43:38.780Z,5.82
2022-10-31T15:46:11.066Z,6.22
2022-10-31T15:48:41.622Z,6.57
2022-10-31T15:51:09.763Z,6.07
2022-10-31T15:53:40.143Z,6.00
2022-10-31T15:56:10.006Z,6.07
2022-10-31T15:58:45.536Z,7.55
2022-10-31T16:01:25.364Z,5.50
2022-10-31T16:04:04.248Z,7.05
2022-10-31T16:06:33.773Z,4.78
2022-10-31T16:09:01.648Z,6.55
2022-10-31T16:11:37.104Z,6.65
2022-10-31T16:14:08.379Z,5.65
2022-10-31T16:16:43.452Z,6.57
2022-10-31T16:19:20.622Z,5.63
2022-10-31T16:21:51.139Z,5.30
2022-10-31T16:24:24.473Z,5.18
2022-10-31T16:26:55.031Z,5.40
2022-10-31T16:29:34.564Z,6.07
2022-10-31T16:32:02.719Z,5.95
2022-10-31T16:34:32.008Z,4.82
2022-10-31T16:36:59.845Z,5.55
2022-10-31T16:39:27.749Z,5.32
2022-10-31T16:41:58.120Z,10.93
2022-10-31T16:44:27.608Z,6.57
2022-10-31T16:47:11.298Z,6.72
2022-10-31T16:49:40.534Z,5.03
2022-10-31T16:52:08.420Z,6.13
2022-10-31T16:54:36.373Z,6.18
2022-10-31T16:57:06.886Z,5.07
2022-10-31T16:59:35.758Z,7.30
2022-10-31T17:02:12.204Z,4.53
2022-10-31T17:04:41.523Z,5.20
2022-10-31T17:07:09.442Z,5.70
2022-10-31T17:09:37.325Z,6.15
2022-10-31T17:12:07.724Z,5.15
2022-10-31T17:14:36.391Z,5.85
2022-10-31T17:17:04.235Z,7.03
2022-10-31T17:19:32.098Z,6.63
2022-10-31T17:22:03.119Z,4.88
2022-10-31T17:24:31.029Z,5.20
2022-10-31T17:26:58.883Z,6.72
2022-10-31T17:29:26.655Z,7.03
2022-10-31T17:31:54.721Z,7.50
2022-10-31T17:34:22.502Z,5.25
2022-10-31T17:36:52.297Z,5.90
2022-10-31T17:39:21.853Z,6.90
2022-10-31T17:41:52.393Z,6.75
2022-10-31T17:44:20.611Z,9.30
2022-10-31T17:46:48.420Z,4.85
2022-10-31T17:49:16.357Z,4.97
2022-10-31T17:51:44.078Z,5.75
2022-10-31T17:54:11.989Z,4.78
2022-10-31T17:56:41.113Z,6.63
2022-10-31T17:59:09.223Z,4.60
2022-10-31T18:01:37.705Z,7.28
2022-10-31T18:04:05.857Z,5.35
2022-10-31T18:06:33.592Z,5.97
2022-10-31T18:09:03.973Z,6.88
2022-10-31T18:11:32.641Z,6.68
2022-10-31T18:14:01.980Z,6.85
2022-10-31T18:16:29.863Z,5.65
2022-10-31T18:19:01.768Z,8.13
2022-10-31T18:21:30.156Z,5.85
2022-10-31T18:23:58.869Z,6.15
2022-10-31T18:26:28.014Z,6.10
2022-10-31T18:28:55.991Z,5.93
2022-10-31T18:31:25.494Z,6.18
2022-10-31T18:33:53.700Z,6.30
2022-10-31T18:36:21.971Z,4.80
2022-10-31T18:38:49.847Z,6.60
2022-10-31T18:41:18.164Z,6.70
2022-10-31T18:43:45.943Z,6.82
2022-10-31T18:46:15.956Z,7.65
2022-10-31T18:48:46.406Z,7.13
2022-10-31T18:51:17.994Z,5.88
2022-10-31T18:53:51.716Z,8.60
2022-10-31T18:56:20.209Z,7.25
2022-10-31T18:58:48.276Z,6.00
2022-10-31T19:01:17.519Z,6.47
2022-10-31T19:03:47.124Z,7.22
2022-10-31T19:06:15.062Z,5.72
2022-10-31T19:08:42.955Z,6.20
2022-10-31T19:11:12.817Z,5.15
2022-10-31T19:13:41.801Z,5.88
2022-10-31T19:16:11.428Z,5.72
2022-10-31T19:18:39.761Z,5.97
2022-10-31T19:21:11.337Z,4.57
2022-10-31T19:23:39.828Z,6.30
2022-10-31T19:26:07.937Z,5.82
2022-10-31T19:28:37.527Z,5.65
2022-10-31T19:31:06.546Z,6.65
2022-10-31T19:33:36.250Z,5.50
2022-10-31T19:36:09.535Z,5.75
2022-10-31T19:38:41.147Z,6.70
2022-10-31T19:41:11.148Z,5.68
2022-10-31T19:43:38.931Z,8.60
2022-10-31T19:46:17.354Z,7.00
2022-10-31T19:48:50.504Z,7.25
2022-10-31T19:51:20.801Z,7.03
2022-10-31T19:53:50.543Z,5.38
2022-10-31T19:56:20.373Z,5.65
2022-10-31T19:58:48.741Z,4.45
2022-10-31T20:01:18.290Z,6.70
2022-10-31T20:03:46.857Z,6.80
2022-10-31T20:06:17.439Z,9.70
2022-10-31T20:08:45.259Z,5.82
2022-10-31T20:11:14.400Z,5.93
2022-10-31T20:13:42.217Z,5.22
2022-10-31T20:16:12.622Z,6.22
2022-10-31T20:18:41.023Z,5.38
2022-10-31T20:21:12.155Z,6.07
2022-10-31T20:23:40.815Z,5.25
2022-10-31T20:26:11.495Z,6.55
2022-10-31T20:28:43.215Z,7.50
2022-10-31T20:31:13.548Z,4.72
2022-10-31T20:33:42.282Z,6.22
2022-10-31T20:36:10.754Z,6.43
2022-10-31T20:38:39.222Z,5.60
2022-10-31T20:41:08.501Z,6.80
2022-10-31T20:43:36.786Z,5.63
2022-10-31T20:46:08.285Z,6.03
2022-10-31T20:48:36.129Z,4.88
2022-10-31T20:51:06.500Z,6.10
2022-10-31T20:53:35.257Z,7.30
2022-10-31T20:56:07.030Z,5.45
2022-10-31T20:58:36.168Z,6.47
2022-10-31T21:01:04.148Z,6.53
2022-10-31T21:03:36.547Z,7.45
2022-10-31T21:06:05.644Z,6.22
2022-10-31T21:08:34.290Z,5.43
2022-10-31T21:11:02.198Z,5.03
2022-10-31T21:13:31.861Z,5.07
2022-10-31T21:16:02.292Z,6.32
2022-10-31T21:18:30.602Z,4.70
2022-10-31T21:20:59.719Z,9.55
2022-10-31T21:23:27.669Z,5.68
2022-10-31T21:25:55.511Z,4.80
2022-10-31T21:28:23.402Z,5.20
2022-10-31T21:30:52.647Z,5.80
2022-10-31T21:33:20.539Z,5.95
2022-10-31T21:35:52.035Z,6.30
2022-10-31T21:38:21.269Z,5.10
2022-10-31T21:40:49.099Z,6.63
2022-10-31T21:43:16.915Z,6.28
2022-10-31T21:45:44.713Z,6.00
2022-10-31T21:48:12.542Z,7.95
2022-10-31T21:50:40.299Z,6.43
2022-10-31T21:53:22.042Z,5.95
2022-10-31T21:55:51.220Z,7.60
2022-10-31T21:58:18.997Z,5.93
2022-10-31T22:00:46.941Z,4.72
2022-10-31T22:03:14.745Z,6.20
2022-10-31T22:05:42.557Z,9.35
2022-10-31T22:08:10.352Z,6.38
2022-10-31T22:10:38.450Z,4.50
2022-10-31T22:13:07.618Z,6.35
2022-10-31T22:15:35.511Z,5.50
2022-10-31T22:18:03.577Z,4.82
2022-10-31T22:20:32.198Z,5.97
2022-10-31T22:23:00.032Z,5.50
2022-10-31T22:25:27.795Z,5.10
2022-10-31T22:27:55.660Z,7.55
2022-10-31T22:30:24.893Z,4.55
2022-10-31T22:32:52.851Z,5.22
2022-10-31T22:35:20.703Z,6.47
2022-10-31T22:37:48.521Z,7.70
2022-10-31T22:40:16.575Z,5.07
2022-10-31T22:42:44.358Z,6.07
2022-10-31T22:45:12.339Z,5.80
2022-10-31T22:47:42.598Z,4.95
2022-10-31T22:50:10.791Z,6.07
2022-10-31T22:52:38.624Z,6.82
2022-10-31T22:55:07.711Z,5.13
2022-10-31T22:57:35.779Z,4.35
2022-10-31T23:00:04.879Z,5.60
2022-10-31T23:02:32.808Z,6.68
2022-10-31T23:05:02.279Z,5.20
2022-10-31T23:07:32.953Z,8.52
2022-10-31T23:10:01.166Z,4.97
2022-10-31T23:12:48.041Z,5.90
2022-10-31T23:15:16.020Z,5.15
2022-10-31T23:17:43.792Z,5.85
2022-10-31T23:20:13.054Z,4.85
2022-10-31T23:22:41.523Z,4.90
2022-10-31T23:25:10.179Z,6.38
2022-10-31T23:27:37.020Z,5.32
2022-10-31T23:30:05.803Z,5.60
2022-10-31T23:32:36.099Z,7.25
2022-10-31T23:35:06.205Z,5.80
2022-10-31T23:37:37.027Z,5.88
2022-10-31T23:40:06.386Z,7.65
2022-10-31T23:42:34.167Z,4.45
2022-10-31T23:45:01.958Z,5.47
2022-10-31T23:47:29.818Z,6.55
2022-10-31T23:49:57.719Z,7.15
2022-10-31T23:52:25.581Z,7.78
2022-10-31T23:54:54.787Z,6.97
2022-10-31T23:57:22.579Z,7.00
2022-10-31T23:59:50.456Z,5.47
